sensor_id;sensor_type;location;lat;lon;timestamp;temperature;humidity
6407;DHT22;3236;51.022;6.818;2022-12-17T00:00:19;-1.30;99.90
6407;DHT22;3236;51.022;6.818;2022-12-17T00:03:04;-1.20;99.90
6407;DHT22;3236;51.022;6.818;2022-12-17T00:05:50;-1.10;99.90
6407;DHT22;3236;51.022;6.818;2022-12-17T00:11:21;-1.20;99.90
6407;DHT22;3236;51.022;6.818;2022-12-17T00:14:07;-1.10;99.90
6407;DHT22;3236;51.022;6.818;2022-12-17T00:16:52;-1.20;99.90
6407;DHT22;3236;51.022;6.818;2022-12-17T00:19:36;-1.10;99.90
6407;DHT22;3236;51.022;6.818;2022-12-17T00:22:36;-1.20;99.90
6407;DHT22;3236;51.022;6.818;2022-12-17T00:25:21;-1.10;99.90
6407;DHT22;3236;51.022;6.818;2022-12-17T00:28:08;-1.20;99.90
6407;DHT22;3236;51.022;6.818;2022-12-17T00:30:55;-1.30;99.90
6407;DHT22;3236;51.022;6.818;2022-12-17T00:33:40;-1.30;99.90
6407;DHT22;3236;51.022;6.818;2022-12-17T00:36:25;-1.20;99.90
6407;DHT22;3236;51.022;6.818;2022-12-17T00:39:11;-1.30;99.90
6407;DHT22;3236;51.022;6.818;2022-12-17T00:42:01;-2.00;99.90
6407;DHT22;3236;51.022;6.818;2022-12-17T00:44:46;-1.20;99.90
6407;DHT22;3236;51.022;6.818;2022-12-17T00:47:35;-1.20;99.90
6407;DHT22;3236;51.022;6.818;2022-12-17T00:50:20;-1.30;99.90
6407;DHT22;3236;51.022;6.818;2022-12-17T00:53:06;-1.10;99.90
6407;DHT22;3236;51.022;6.818;2022-12-17T00:55:50;-1.20;99.90
6407;DHT22;3236;51.022;6.818;2022-12-17T00:58:35;-1.10;99.90
6407;DHT22;3236;51.022;6.818;2022-12-17T01:01:19;-0.60;99.90
6407;DHT22;3236;51.022;6.818;2022-12-17T01:04:06;-1.20;99.90
6407;DHT22;3236;51.022;6.818;2022-12-17T01:06:57;-1.10;99.90
6407;DHT22;3236;51.022;6.818;2022-12-17T01:09:45;-1.20;99.90
6407;DHT22;3236;51.022;6.818;2022-12-17T01:12:30;-1.30;99.90
6407;DHT22;3236;51.022;6.818;2022-12-17T01:15:21;-1.30;99.90
6407;DHT22;3236;51.022;6.818;2022-12-17T01:18:08;-1.00;99.90
6407;DHT22;3236;51.022;6.818;2022-12-17T01:20:56;-1.20;99.90
6407;DHT22;3236;51.022;6.818;2022-12-17T01:23:41;-1.10;99.90
6407;DHT22;3236;51.022;6.818;2022-12-17T01:26:28;-1.20;99.90
6407;DHT22;3236;51.022;6.818;2022-12-17T01:29:12;-1.60;99.90
6407;DHT22;3236;51.022;6.818;2022-12-17T01:31:56;-1.30;99.90
6407;DHT22;3236;51.022;6.818;2022-12-17T01:34:41;-1.20;99.90
6407;DHT22;3236;51.022;6.818;2022-12-17T01:37:27;-1.30;99.90
6407;DHT22;3236;51.022;6.818;2022-12-17T01:40:12;-1.50;99.90
6407;DHT22;3236;51.022;6.818;2022-12-17T01:42:57;-1.30;99.90
6407;DHT22;3236;51.022;6.818;2022-12-17T01:45:43;-1.20;99.90
6407;DHT22;3236;51.022;6.818;2022-12-17T01:48:31;-1.30;99.90
6407;DHT22;3236;51.022;6.818;2022-12-17T01:51:17;-1.40;99.90
6407;DHT22;3236;51.022;6.818;2022-12-17T01:54:04;-1.20;99.90
6407;DHT22;3236;51.022;6.818;2022-12-17T01:56:49;-1.20;99.90
6407;DHT22;3236;51.022;6.818;2022-12-17T01:59:40;-1.10;99.90
6407;DHT22;3236;51.022;6.818;2022-12-17T02:02:26;-1.20;99.90
6407;DHT22;3236;51.022;6.818;2022-12-17T02:08:02;-1.00;99.90
6407;DHT22;3236;51.022;6.818;2022-12-17T02:10:55;-1.20;99.90
6407;DHT22;3236;51.022;6.818;2022-12-17T02:13:49;-1.10;99.90
6407;DHT22;3236;51.022;6.818;2022-12-17T02:16:35;-1.10;99.90
6407;DHT22;3236;51.022;6.818;2022-12-17T02:19:30;-1.20;99.90
6407;DHT22;3236;51.022;6.818;2022-12-17T02:22:29;-1.20;99.90
6407;DHT22;3236;51.022;6.818;2022-12-17T02:25:21;-1.00;99.90
6407;DHT22;3236;51.022;6.818;2022-12-17T02:28:10;-1.30;99.90
6407;DHT22;3236;51.022;6.818;2022-12-17T02:30:55;-1.10;99.90
6407;DHT22;3236;51.022;6.818;2022-12-17T02:33:44;-1.20;99.90
6407;DHT22;3236;51.022;6.818;2022-12-17T02:36:29;-1.70;99.90
6407;DHT22;3236;51.022;6.818;2022-12-17T02:39:14;-0.80;99.90
6407;DHT22;3236;51.022;6.818;2022-12-17T02:41:58;-1.20;99.90
6407;DHT22;3236;51.022;6.818;2022-12-17T02:44:48;-1.20;99.90
6407;DHT22;3236;51.022;6.818;2022-12-17T02:47:32;-1.20;99.90
6407;DHT22;3236;51.022;6.818;2022-12-17T02:50:18;-1.00;99.90
6407;DHT22;3236;51.022;6.818;2022-12-17T02:53:00;-1.40;99.90
6407;DHT22;3236;51.022;6.818;2022-12-17T02:55:46;-1.10;99.90
6407;DHT22;3236;51.022;6.818;2022-12-17T02:58:30;-1.20;99.90
6407;DHT22;3236;51.022;6.818;2022-12-17T03:01:16;-1.50;99.90
6407;DHT22;3236;51.022;6.818;2022-12-17T03:04:01;-1.30;99.90
6407;DHT22;3236;51.022;6.818;2022-12-17T03:06:45;-1.30;99.90
6407;DHT22;3236;51.022;6.818;2022-12-17T03:09:30;-1.40;99.90
6407;DHT22;3236;51.022;6.818;2022-12-17T03:12:15;-1.40;99.90
6407;DHT22;3236;51.022;6.818;2022-12-17T03:15:03;-1.40;99.90
6407;DHT22;3236;51.022;6.818;2022-12-17T03:17:55;-1.30;99.90
6407;DHT22;3236;51.022;6.818;2022-12-17T03:20:40;-1.30;99.90
6407;DHT22;3236;51.022;6.818;2022-12-17T03:23:28;-0.90;99.90
6407;DHT22;3236;51.022;6.818;2022-12-17T03:26:13;-1.40;99.90
6407;DHT22;3236;51.022;6.818;2022-12-17T03:28:57;-1.10;99.90
6407;DHT22;3236;51.022;6.818;2022-12-17T03:31:44;-1.60;99.90
6407;DHT22;3236;51.022;6.818;2022-12-17T03:37:24;-1.40;99.90
6407;DHT22;3236;51.022;6.818;2022-12-17T03:40:20;-1.10;99.90
6407;DHT22;3236;51.022;6.818;2022-12-17T03:43:10;-1.40;99.90
6407;DHT22;3236;51.022;6.818;2022-12-17T03:46:09;-1.40;99.90
6407;DHT22;3236;51.022;6.818;2022-12-17T03:48:56;-1.50;99.90
6407;DHT22;3236;51.022;6.818;2022-12-17T03:51:41;-1.30;99.90
6407;DHT22;3236;51.022;6.818;2022-12-17T03:54:26;-1.60;99.90
6407;DHT22;3236;51.022;6.818;2022-12-17T03:57:10;-1.50;99.90
6407;DHT22;3236;51.022;6.818;2022-12-17T03:59:55;-1.80;99.90
6407;DHT22;3236;51.022;6.818;2022-12-17T04:02:40;-1.60;99.90
6407;DHT22;3236;51.022;6.818;2022-12-17T04:05:25;-1.60;99.90
6407;DHT22;3236;51.022;6.818;2022-12-17T04:08:15;-1.50;99.90
6407;DHT22;3236;51.022;6.818;2022-12-17T04:11:00;-1.40;99.90
6407;DHT22;3236;51.022;6.818;2022-12-17T04:13:44;-1.50;99.90
6407;DHT22;3236;51.022;6.818;2022-12-17T04:16:28;-1.40;99.90
6407;DHT22;3236;51.022;6.818;2022-12-17T04:19:13;-1.40;99.90
6407;DHT22;3236;51.022;6.818;2022-12-17T04:21:58;-1.40;99.90
6407;DHT22;3236;51.022;6.818;2022-12-17T04:24:44;-1.50;99.90
6407;DHT22;3236;51.022;6.818;2022-12-17T04:27:31;-1.60;99.90
6407;DHT22;3236;51.022;6.818;2022-12-17T04:30:15;-1.60;99.90
6407;DHT22;3236;51.022;6.818;2022-12-17T04:33:00;-1.70;99.90
6407;DHT22;3236;51.022;6.818;2022-12-17T04:35:45;-1.60;99.90
6407;DHT22;3236;51.022;6.818;2022-12-17T04:38:29;-1.70;99.90
6407;DHT22;3236;51.022;6.818;2022-12-17T04:41:15;-1.70;99.90
6407;DHT22;3236;51.022;6.818;2022-12-17T04:43:59;-1.70;99.90
6407;DHT22;3236;51.022;6.818;2022-12-17T04:46:44;-1.50;99.90
6407;DHT22;3236;51.022;6.818;2022-12-17T04:49:29;-1.80;99.90
6407;DHT22;3236;51.022;6.818;2022-12-17T04:54:58;-1.70;99.90
6407;DHT22;3236;51.022;6.818;2022-12-17T04:57:44;-1.70;99.90
6407;DHT22;3236;51.022;6.818;2022-12-17T05:00:29;-1.80;99.90
6407;DHT22;3236;51.022;6.818;2022-12-17T05:03:15;-2.10;99.90
6407;DHT22;3236;51.022;6.818;2022-12-17T05:06:00;-1.50;99.90
6407;DHT22;3236;51.022;6.818;2022-12-17T05:11:30;-0.80;99.90
6407;DHT22;3236;51.022;6.818;2022-12-17T05:14:16;-1.80;99.90
6407;DHT22;3236;51.022;6.818;2022-12-17T05:17:02;-2.00;99.90
6407;DHT22;3236;51.022;6.818;2022-12-17T05:19:47;-1.70;99.90
6407;DHT22;3236;51.022;6.818;2022-12-17T05:22:32;-1.80;99.90
6407;DHT22;3236;51.022;6.818;2022-12-17T05:25:17;-1.80;99.90
6407;DHT22;3236;51.022;6.818;2022-12-17T05:28:02;-1.70;99.90
6407;DHT22;3236;51.022;6.818;2022-12-17T05:30:52;-2.10;99.90
6407;DHT22;3236;51.022;6.818;2022-12-17T05:33:36;-1.80;99.90
6407;DHT22;3236;51.022;6.818;2022-12-17T05:36:21;-1.60;99.90
6407;DHT22;3236;51.022;6.818;2022-12-17T05:39:06;-2.10;99.90
6407;DHT22;3236;51.022;6.818;2022-12-17T05:41:50;-1.80;99.90
6407;DHT22;3236;51.022;6.818;2022-12-17T05:44:35;-1.80;99.90
6407;DHT22;3236;51.022;6.818;2022-12-17T05:47:21;-1.70;99.90
6407;DHT22;3236;51.022;6.818;2022-12-17T05:50:07;-2.00;99.90
6407;DHT22;3236;51.022;6.818;2022-12-17T05:52:51;-1.90;99.90
6407;DHT22;3236;51.022;6.818;2022-12-17T05:55:36;-2.10;99.90
6407;DHT22;3236;51.022;6.818;2022-12-17T05:58:20;-2.00;99.90
6407;DHT22;3236;51.022;6.818;2022-12-17T06:01:05;-2.20;99.90
6407;DHT22;3236;51.022;6.818;2022-12-17T06:03:51;-2.20;99.90
6407;DHT22;3236;51.022;6.818;2022-12-17T06:06:36;-2.20;99.90
6407;DHT22;3236;51.022;6.818;2022-12-17T06:09:17;-1.60;99.90
6407;DHT22;3236;51.022;6.818;2022-12-17T06:12:02;-2.30;99.90
6407;DHT22;3236;51.022;6.818;2022-12-17T06:14:47;-2.20;99.90
6407;DHT22;3236;51.022;6.818;2022-12-17T06:17:31;-2.20;99.90
6407;DHT22;3236;51.022;6.818;2022-12-17T06:20:18;-2.30;99.90
6407;DHT22;3236;51.022;6.818;2022-12-17T06:23:05;-2.30;99.90
6407;DHT22;3236;51.022;6.818;2022-12-17T06:25:51;-2.50;99.90
6407;DHT22;3236;51.022;6.818;2022-12-17T06:31:24;-2.10;99.90
6407;DHT22;3236;51.022;6.818;2022-12-17T06:34:08;-2.40;99.90
6407;DHT22;3236;51.022;6.818;2022-12-17T06:36:54;-2.40;99.90
6407;DHT22;3236;51.022;6.818;2022-12-17T06:42:29;-2.40;99.90
6407;DHT22;3236;51.022;6.818;2022-12-17T06:45:14;-2.70;99.90
6407;DHT22;3236;51.022;6.818;2022-12-17T06:48:05;-2.40;99.90
6407;DHT22;3236;51.022;6.818;2022-12-17T06:50:52;-2.40;99.90
6407;DHT22;3236;51.022;6.818;2022-12-17T06:53:38;-2.50;99.90
6407;DHT22;3236;51.022;6.818;2022-12-17T06:56:22;-2.40;99.90
6407;DHT22;3236;51.022;6.818;2022-12-17T06:59:07;-2.60;99.90
6407;DHT22;3236;51.022;6.818;2022-12-17T07:01:58;-2.50;99.90
6407;DHT22;3236;51.022;6.818;2022-12-17T07:04:43;-2.60;99.90
6407;DHT22;3236;51.022;6.818;2022-12-17T07:07:30;-2.50;99.90
6407;DHT22;3236;51.022;6.818;2022-12-17T07:10:17;-2.50;99.90
6407;DHT22;3236;51.022;6.818;2022-12-17T07:13:04;-2.80;99.90
6407;DHT22;3236;51.022;6.818;2022-12-17T07:15:50;-2.70;99.90
6407;DHT22;3236;51.022;6.818;2022-12-17T07:18:34;-2.80;99.90
6407;DHT22;3236;51.022;6.818;2022-12-17T07:21:21;-2.90;99.90
6407;DHT22;3236;51.022;6.818;2022-12-17T07:24:06;-2.90;99.90
6407;DHT22;3236;51.022;6.818;2022-12-17T07:26:52;-3.10;99.90
6407;DHT22;3236;51.022;6.818;2022-12-17T07:29:38;-3.30;99.90
6407;DHT22;3236;51.022;6.818;2022-12-17T07:32:24;-3.10;99.90
6407;DHT22;3236;51.022;6.818;2022-12-17T07:35:09;-3.30;99.90
6407;DHT22;3236;51.022;6.818;2022-12-17T07:38:00;-3.10;99.90
6407;DHT22;3236;51.022;6.818;2022-12-17T07:40:46;-3.40;99.90
6407;DHT22;3236;51.022;6.818;2022-12-17T07:43:31;-3.30;99.90
6407;DHT22;3236;51.022;6.818;2022-12-17T07:46:16;-3.60;99.90
6407;DHT22;3236;51.022;6.818;2022-12-17T07:49:01;-3.20;99.90
6407;DHT22;3236;51.022;6.818;2022-12-17T07:51:46;-3.20;99.90
6407;DHT22;3236;51.022;6.818;2022-12-17T07:54:30;-3.20;99.90
6407;DHT22;3236;51.022;6.818;2022-12-17T07:57:15;-3.40;99.90
6407;DHT22;3236;51.022;6.818;2022-12-17T08:00:01;-3.20;99.90
6407;DHT22;3236;51.022;6.818;2022-12-17T08:02:45;-3.20;99.90
6407;DHT22;3236;51.022;6.818;2022-12-17T08:05:30;-3.40;99.90
6407;DHT22;3236;51.022;6.818;2022-12-17T08:08:15;-2.70;99.90
6407;DHT22;3236;51.022;6.818;2022-12-17T08:10:59;-3.50;99.90
6407;DHT22;3236;51.022;6.818;2022-12-17T08:13:44;-3.50;99.90
6407;DHT22;3236;51.022;6.818;2022-12-17T08:16:30;-3.30;99.90
6407;DHT22;3236;51.022;6.818;2022-12-17T08:19:15;-3.50;99.90
6407;DHT22;3236;51.022;6.818;2022-12-17T08:21:59;-3.50;99.90
6407;DHT22;3236;51.022;6.818;2022-12-17T08:24:44;-3.60;99.90
6407;DHT22;3236;51.022;6.818;2022-12-17T08:27:28;-4.10;99.90
6407;DHT22;3236;51.022;6.818;2022-12-17T08:30:21;-3.90;99.90
6407;DHT22;3236;51.022;6.818;2022-12-17T08:33:07;-3.50;99.90
6407;DHT22;3236;51.022;6.818;2022-12-17T08:35:52;-3.50;99.90
6407;DHT22;3236;51.022;6.818;2022-12-17T08:38:37;-3.60;99.90
6407;DHT22;3236;51.022;6.818;2022-12-17T08:41:22;-3.70;99.90
6407;DHT22;3236;51.022;6.818;2022-12-17T08:44:06;-3.90;99.90
6407;DHT22;3236;51.022;6.818;2022-12-17T08:46:51;-3.80;99.90
6407;DHT22;3236;51.022;6.818;2022-12-17T08:49:37;-3.80;99.90
6407;DHT22;3236;51.022;6.818;2022-12-17T08:52:28;-3.90;99.90
6407;DHT22;3236;51.022;6.818;2022-12-17T08:55:12;-3.90;99.90
6407;DHT22;3236;51.022;6.818;2022-12-17T08:57:58;-3.90;99.90
6407;DHT22;3236;51.022;6.818;2022-12-17T09:00:48;-3.90;99.90
6407;DHT22;3236;51.022;6.818;2022-12-17T09:03:35;-3.60;99.90
6407;DHT22;3236;51.022;6.818;2022-12-17T09:06:21;-3.70;99.90
6407;DHT22;3236;51.022;6.818;2022-12-17T09:11:50;-3.30;99.90
6407;DHT22;3236;51.022;6.818;2022-12-17T09:14:44;-3.40;99.90
6407;DHT22;3236;51.022;6.818;2022-12-17T09:17:30;-3.20;99.90
6407;DHT22;3236;51.022;6.818;2022-12-17T09:20:15;-3.50;99.90
6407;DHT22;3236;51.022;6.818;2022-12-17T09:23:01;-3.50;99.90
6407;DHT22;3236;51.022;6.818;2022-12-17T09:25:51;-3.40;99.90
6407;DHT22;3236;51.022;6.818;2022-12-17T09:28:36;-2.60;99.90
6407;DHT22;3236;51.022;6.818;2022-12-17T09:31:20;-3.30;99.90
6407;DHT22;3236;51.022;6.818;2022-12-17T09:34:04;-3.30;99.90
6407;DHT22;3236;51.022;6.818;2022-12-17T09:36:49;-3.20;99.90
6407;DHT22;3236;51.022;6.818;2022-12-17T09:39:41;-3.20;99.90
6407;DHT22;3236;51.022;6.818;2022-12-17T09:42:30;-3.00;99.90
6407;DHT22;3236;51.022;6.818;2022-12-17T09:45:21;-2.90;99.90
6407;DHT22;3236;51.022;6.818;2022-12-17T09:48:16;-2.90;99.90
6407;DHT22;3236;51.022;6.818;2022-12-17T09:51:03;-2.90;99.90
6407;DHT22;3236;51.022;6.818;2022-12-17T09:53:49;-2.80;99.90
6407;DHT22;3236;51.022;6.818;2022-12-17T09:56:41;-2.80;99.90
6407;DHT22;3236;51.022;6.818;2022-12-17T09:59:28;-2.80;99.90
6407;DHT22;3236;51.022;6.818;2022-12-17T10:02:18;-2.80;99.90
6407;DHT22;3236;51.022;6.818;2022-12-17T10:05:06;-2.90;99.90
6407;DHT22;3236;51.022;6.818;2022-12-17T10:07:57;-2.90;99.90
6407;DHT22;3236;51.022;6.818;2022-12-17T10:10:44;-2.90;99.90
6407;DHT22;3236;51.022;6.818;2022-12-17T10:13:31;-2.80;99.90
6407;DHT22;3236;51.022;6.818;2022-12-17T10:16:19;-3.40;99.90
6407;DHT22;3236;51.022;6.818;2022-12-17T10:21:49;-3.30;99.90
6407;DHT22;3236;51.022;6.818;2022-12-17T10:24:43;-3.30;99.90
6407;DHT22;3236;51.022;6.818;2022-12-17T10:27:33;-3.10;99.90
6407;DHT22;3236;51.022;6.818;2022-12-17T10:30:25;-2.90;99.90
6407;DHT22;3236;51.022;6.818;2022-12-17T10:33:15;-2.90;99.90
6407;DHT22;3236;51.022;6.818;2022-12-17T10:36:17;-2.80;99.90
6407;DHT22;3236;51.022;6.818;2022-12-17T10:39:03;-3.10;99.90
6407;DHT22;3236;51.022;6.818;2022-12-17T10:41:48;-3.20;99.90
6407;DHT22;3236;51.022;6.818;2022-12-17T10:44:34;-3.10;99.90
6407;DHT22;3236;51.022;6.818;2022-12-17T10:47:25;-3.10;99.90
6407;DHT22;3236;51.022;6.818;2022-12-17T10:50:11;-2.70;99.90
6407;DHT22;3236;51.022;6.818;2022-12-17T10:52:56;-2.70;99.90
6407;DHT22;3236;51.022;6.818;2022-12-17T10:55:49;-2.90;99.90
6407;DHT22;3236;51.022;6.818;2022-12-17T10:58:35;-2.80;99.90
6407;DHT22;3236;51.022;6.818;2022-12-17T11:01:24;-2.90;99.90
6407;DHT22;3236;51.022;6.818;2022-12-17T11:04:26;-3.10;99.90
6407;DHT22;3236;51.022;6.818;2022-12-17T11:07:14;-2.90;99.90
6407;DHT22;3236;51.022;6.818;2022-12-17T11:10:02;-2.70;99.90
6407;DHT22;3236;51.022;6.818;2022-12-17T11:12:51;-2.80;99.90
6407;DHT22;3236;51.022;6.818;2022-12-17T11:15:42;-2.70;99.90
6407;DHT22;3236;51.022;6.818;2022-12-17T11:18:30;-2.60;99.90
6407;DHT22;3236;51.022;6.818;2022-12-17T11:21:20;-2.30;99.90
6407;DHT22;3236;51.022;6.818;2022-12-17T11:24:12;-2.70;99.90
6407;DHT22;3236;51.022;6.818;2022-12-17T11:26:58;-2.80;99.90
6407;DHT22;3236;51.022;6.818;2022-12-17T11:29:45;-2.60;99.90
6407;DHT22;3236;51.022;6.818;2022-12-17T11:32:54;-2.50;99.90
6407;DHT22;3236;51.022;6.818;2022-12-17T11:35:47;-2.30;99.90
6407;DHT22;3236;51.022;6.818;2022-12-17T11:38:40;-2.60;99.90
6407;DHT22;3236;51.022;6.818;2022-12-17T11:41:38;-2.90;99.90
6407;DHT22;3236;51.022;6.818;2022-12-17T11:44:41;-2.20;99.90
6407;DHT22;3236;51.022;6.818;2022-12-17T11:47:35;-1.90;99.90
6407;DHT22;3236;51.022;6.818;2022-12-17T11:50:26;-1.50;99.90
6407;DHT22;3236;51.022;6.818;2022-12-17T11:53:26;-1.00;99.90
6407;DHT22;3236;51.022;6.818;2022-12-17T11:56:24;-1.10;99.90
6407;DHT22;3236;51.022;6.818;2022-12-17T11:59:17;-0.80;99.90
6407;DHT22;3236;51.022;6.818;2022-12-17T12:02:11;-0.10;99.90
6407;DHT22;3236;51.022;6.818;2022-12-17T12:05:14;1.10;99.90
6407;DHT22;3236;51.022;6.818;2022-12-17T12:08:06;2.80;99.90
6407;DHT22;3236;51.022;6.818;2022-12-17T12:11:04;4.30;99.90
6407;DHT22;3236;51.022;6.818;2022-12-17T12:14:04;4.50;99.90
6407;DHT22;3236;51.022;6.818;2022-12-17T12:17:18;5.20;99.90
6407;DHT22;3236;51.022;6.818;2022-12-17T12:20:12;5.90;99.90
6407;DHT22;3236;51.022;6.818;2022-12-17T12:23:26;6.20;99.90
6407;DHT22;3236;51.022;6.818;2022-12-17T12:26:14;7.30;99.90
6407;DHT22;3236;51.022;6.818;2022-12-17T12:29:05;6.90;99.90
6407;DHT22;3236;51.022;6.818;2022-12-17T12:32:42;7.80;99.90
6407;DHT22;3236;51.022;6.818;2022-12-17T12:35:30;7.50;99.90
6407;DHT22;3236;51.022;6.818;2022-12-17T12:38:21;7.70;99.90
6407;DHT22;3236;51.022;6.818;2022-12-17T12:43:58;8.10;99.90
6407;DHT22;3236;51.022;6.818;2022-12-17T12:46:50;8.00;99.90
6407;DHT22;3236;51.022;6.818;2022-12-17T12:49:43;8.00;97.90
6407;DHT22;3236;51.022;6.818;2022-12-17T12:55:22;8.10;97.00
6407;DHT22;3236;51.022;6.818;2022-12-17T12:58:24;7.40;95.00
6407;DHT22;3236;51.022;6.818;2022-12-17T13:01:08;7.40;96.00
6407;DHT22;3236;51.022;6.818;2022-12-17T13:03:55;7.70;95.00
6407;DHT22;3236;51.022;6.818;2022-12-17T13:06:45;7.20;94.40
6407;DHT22;3236;51.022;6.818;2022-12-17T13:09:44;7.40;94.00
6407;DHT22;3236;51.022;6.818;2022-12-17T13:12:39;7.60;94.10
6407;DHT22;3236;51.022;6.818;2022-12-17T13:15:17;7.30;92.90
6407;DHT22;3236;51.022;6.818;2022-12-17T13:17:55;7.40;91.90
6407;DHT22;3236;51.022;6.818;2022-12-17T13:20:29;7.60;91.10
6407;DHT22;3236;51.022;6.818;2022-12-17T13:23:26;7.70;91.60
6407;DHT22;3236;51.022;6.818;2022-12-17T13:26:20;7.30;93.10
6407;DHT22;3236;51.022;6.818;2022-12-17T13:29:09;7.40;93.00
6407;DHT22;3236;51.022;6.818;2022-12-17T13:36:55;7.70;90.90
6407;DHT22;3236;51.022;6.818;2022-12-17T14:05:23;7.00;91.10
6407;DHT22;3236;51.022;6.818;2022-12-17T14:10:24;6.40;91.00
6407;DHT22;3236;51.022;6.818;2022-12-17T14:20:25;7.80;90.40
6407;DHT22;3236;51.022;6.818;2022-12-17T14:22:54;6.70;88.30
6407;DHT22;3236;51.022;6.818;2022-12-17T14:25:27;5.60;92.00
6407;DHT22;3236;51.022;6.818;2022-12-17T14:27:56;5.30;91.50
6407;DHT22;3236;51.022;6.818;2022-12-17T14:30:35;4.90;96.00
6407;DHT22;3236;51.022;6.818;2022-12-17T14:33:03;3.80;99.30
6407;DHT22;3236;51.022;6.818;2022-12-17T14:35:34;2.20;99.90
6407;DHT22;3236;51.022;6.818;2022-12-17T14:38:02;1.40;99.90
6407;DHT22;3236;51.022;6.818;2022-12-17T14:42:59;0.20;99.90
6407;DHT22;3236;51.022;6.818;2022-12-17T14:45:28;-0.20;99.90
6407;DHT22;3236;51.022;6.818;2022-12-17T14:47:56;-0.50;99.90
6407;DHT22;3236;51.022;6.818;2022-12-17T14:50:30;-1.10;99.90
6407;DHT22;3236;51.022;6.818;2022-12-17T14:52:58;-1.00;99.90
6407;DHT22;3236;51.022;6.818;2022-12-17T14:55:32;-1.20;99.90
6407;DHT22;3236;51.022;6.818;2022-12-17T14:58:17;-1.50;99.90
6407;DHT22;3236;51.022;6.818;2022-12-17T15:00:46;-1.60;99.90
6407;DHT22;3236;51.022;6.818;2022-12-17T15:03:19;-1.60;99.90
6407;DHT22;3236;51.022;6.818;2022-12-17T15:05:50;-1.80;99.90
6407;DHT22;3236;51.022;6.818;2022-12-17T15:08:19;-1.60;99.90
6407;DHT22;3236;51.022;6.818;2022-12-17T15:10:55;-1.80;99.90
6407;DHT22;3236;51.022;6.818;2022-12-17T15:13:22;-1.60;99.90
6407;DHT22;3236;51.022;6.818;2022-12-17T15:15:49;-2.30;99.90
6407;DHT22;3236;51.022;6.818;2022-12-17T15:18:16;-2.50;99.90
6407;DHT22;3236;51.022;6.818;2022-12-17T15:20:44;-2.50;99.90
6407;DHT22;3236;51.022;6.818;2022-12-17T15:23:14;-2.70;99.90
6407;DHT22;3236;51.022;6.818;2022-12-17T15:28:11;-2.80;99.90
6407;DHT22;3236;51.022;6.818;2022-12-17T15:30:38;-2.90;99.90
6407;DHT22;3236;51.022;6.818;2022-12-17T15:33:06;-2.90;99.90
6407;DHT22;3236;51.022;6.818;2022-12-17T15:35:37;-3.20;99.90
6407;DHT22;3236;51.022;6.818;2022-12-17T15:38:05;-3.30;99.90
6407;DHT22;3236;51.022;6.818;2022-12-17T15:40:35;-3.40;99.90
6407;DHT22;3236;51.022;6.818;2022-12-17T15:43:02;-3.60;99.90
6407;DHT22;3236;51.022;6.818;2022-12-17T15:45:40;-3.70;99.90
6407;DHT22;3236;51.022;6.818;2022-12-17T15:48:08;-3.50;99.90
6407;DHT22;3236;51.022;6.818;2022-12-17T15:50:35;-3.90;99.90
6407;DHT22;3236;51.022;6.818;2022-12-17T15:55:30;-3.70;99.90
6407;DHT22;3236;51.022;6.818;2022-12-17T15:57:57;-3.70;99.90
6407;DHT22;3236;51.022;6.818;2022-12-17T16:00:24;-4.00;99.90
6407;DHT22;3236;51.022;6.818;2022-12-17T16:02:52;-4.00;99.90
6407;DHT22;3236;51.022;6.818;2022-12-17T16:05:20;-4.20;99.90
6407;DHT22;3236;51.022;6.818;2022-12-17T16:07:47;-4.10;99.90
6407;DHT22;3236;51.022;6.818;2022-12-17T16:10:14;-4.00;99.90
6407;DHT22;3236;51.022;6.818;2022-12-17T16:12:41;-2.90;99.90
6407;DHT22;3236;51.022;6.818;2022-12-17T16:15:12;-3.80;99.90
6407;DHT22;3236;51.022;6.818;2022-12-17T16:22:36;-4.10;99.90
6407;DHT22;3236;51.022;6.818;2022-12-17T16:25:04;-4.10;99.90
6407;DHT22;3236;51.022;6.818;2022-12-17T16:27:31;-4.30;99.90
6407;DHT22;3236;51.022;6.818;2022-12-17T16:29:59;-4.00;99.90
6407;DHT22;3236;51.022;6.818;2022-12-17T16:32:27;-4.00;99.90
6407;DHT22;3236;51.022;6.818;2022-12-17T16:34:55;-4.20;99.90
6407;DHT22;3236;51.022;6.818;2022-12-17T16:37:23;-4.20;99.90
6407;DHT22;3236;51.022;6.818;2022-12-17T16:39:50;-4.40;99.90
6407;DHT22;3236;51.022;6.818;2022-12-17T16:42:17;-3.20;99.90
6407;DHT22;3236;51.022;6.818;2022-12-17T16:44:44;-4.10;99.90
6407;DHT22;3236;51.022;6.818;2022-12-17T16:47:12;-4.30;99.90
6407;DHT22;3236;51.022;6.818;2022-12-17T16:49:39;-4.10;99.90
6407;DHT22;3236;51.022;6.818;2022-12-17T16:52:06;-3.90;99.90
6407;DHT22;3236;51.022;6.818;2022-12-17T16:54:37;-4.20;99.90
6407;DHT22;3236;51.022;6.818;2022-12-17T16:57:04;-4.40;99.90
6407;DHT22;3236;51.022;6.818;2022-12-17T16:59:34;-4.20;99.90
6407;DHT22;3236;51.022;6.818;2022-12-17T17:02:02;-4.50;99.90
6407;DHT22;3236;51.022;6.818;2022-12-17T17:04:30;-4.60;99.90
6407;DHT22;3236;51.022;6.818;2022-12-17T17:06:57;-4.50;99.90
6407;DHT22;3236;51.022;6.818;2022-12-17T17:09:25;-4.70;99.90
6407;DHT22;3236;51.022;6.818;2022-12-17T17:11:55;-4.90;99.90
6407;DHT22;3236;51.022;6.818;2022-12-17T17:14:23;-5.00;99.90
6407;DHT22;3236;51.022;6.818;2022-12-17T17:16:50;-4.80;99.90
6407;DHT22;3236;51.022;6.818;2022-12-17T17:19:17;-3.50;99.90
6407;DHT22;3236;51.022;6.818;2022-12-17T17:21:48;-4.70;99.90
6407;DHT22;3236;51.022;6.818;2022-12-17T17:24:17;-4.50;99.90
6407;DHT22;3236;51.022;6.818;2022-12-17T17:26:45;-4.60;99.90
6407;DHT22;3236;51.022;6.818;2022-12-17T17:29:14;-4.30;99.90
6407;DHT22;3236;51.022;6.818;2022-12-17T17:31:42;-4.50;99.90
6407;DHT22;3236;51.022;6.818;2022-12-17T17:34:10;-4.50;99.90
6407;DHT22;3236;51.022;6.818;2022-12-17T17:36:43;-4.10;99.90
6407;DHT22;3236;51.022;6.818;2022-12-17T17:41:38;-4.60;99.90
6407;DHT22;3236;51.022;6.818;2022-12-17T17:44:06;-4.60;99.90
6407;DHT22;3236;51.022;6.818;2022-12-17T17:46:35;-4.50;99.90
6407;DHT22;3236;51.022;6.818;2022-12-17T17:49:05;-4.60;99.90
6407;DHT22;3236;51.022;6.818;2022-12-17T17:51:34;-4.80;99.90
6407;DHT22;3236;51.022;6.818;2022-12-17T17:54:02;-4.70;99.90
6407;DHT22;3236;51.022;6.818;2022-12-17T17:56:32;-3.90;99.90
6407;DHT22;3236;51.022;6.818;2022-12-17T17:59:02;-4.50;99.90
6407;DHT22;3236;51.022;6.818;2022-12-17T18:01:31;-4.50;99.90
6407;DHT22;3236;51.022;6.818;2022-12-17T18:04:01;-4.60;99.90
6407;DHT22;3236;51.022;6.818;2022-12-17T18:06:29;-4.80;99.90
6407;DHT22;3236;51.022;6.818;2022-12-17T18:08:58;-4.10;99.90
6407;DHT22;3236;51.022;6.818;2022-12-17T18:11:27;-4.60;99.90
6407;DHT22;3236;51.022;6.818;2022-12-17T18:13:56;-4.60;99.90
6407;DHT22;3236;51.022;6.818;2022-12-17T18:16:24;-4.50;99.90
6407;DHT22;3236;51.022;6.818;2022-12-17T18:18:54;-4.70;99.90
6407;DHT22;3236;51.022;6.818;2022-12-17T18:21:23;-4.20;99.90
6407;DHT22;3236;51.022;6.818;2022-12-17T18:23:54;-4.60;99.90
6407;DHT22;3236;51.022;6.818;2022-12-17T18:26:24;-4.60;99.90
6407;DHT22;3236;51.022;6.818;2022-12-17T18:28:51;-5.10;99.90
6407;DHT22;3236;51.022;6.818;2022-12-17T18:31:20;-4.70;99.90
6407;DHT22;3236;51.022;6.818;2022-12-17T18:33:50;-4.80;99.90
6407;DHT22;3236;51.022;6.818;2022-12-17T18:36:20;-5.00;99.90
6407;DHT22;3236;51.022;6.818;2022-12-17T18:38:54;-5.00;99.90
6407;DHT22;3236;51.022;6.818;2022-12-17T18:41:22;-4.60;99.90
6407;DHT22;3236;51.022;6.818;2022-12-17T18:44:10;-4.70;99.90
6407;DHT22;3236;51.022;6.818;2022-12-17T18:46:40;-4.80;99.90
6407;DHT22;3236;51.022;6.818;2022-12-17T18:49:09;-4.90;99.90
6407;DHT22;3236;51.022;6.818;2022-12-17T18:51:38;-4.80;99.90
6407;DHT22;3236;51.022;6.818;2022-12-17T18:54:09;-4.80;99.90
6407;DHT22;3236;51.022;6.818;2022-12-17T18:56:38;-4.80;99.90
6407;DHT22;3236;51.022;6.818;2022-12-17T18:59:06;-4.70;99.90
6407;DHT22;3236;51.022;6.818;2022-12-17T19:01:34;-4.80;99.90
6407;DHT22;3236;51.022;6.818;2022-12-17T19:04:20;-4.80;99.90
6407;DHT22;3236;51.022;6.818;2022-12-17T19:06:49;-4.80;99.90